Peruwelz, Belgium
Current Conditions -  °F | °C
As of 4:25 PM on Friday 19 Dec 2014 (Local Time) from EBCV Reporting Station
Broken Clouds Broken Clouds  
Wind Chill:   Ceiling: 4200
Heat Index:   Visibility: 6mi
Dew Point:   Wind: 12mph
Humidity: 76%   Direction: 300°WNW
Pressure: 30"   Gusts: NA
Location:  50.51°N, 3.59°E
Report Text: EBCV 191525Z AUTO 30010KT 9999 BKN042/// 08/04 Q1016 BLU
Loading
Personal Weather Stations






























Interactive Weather Map New forecast layout! Learn more

10-Day Weather Forecast

Advertisements
Track Severe Weather on mobile